<?xml version='1.0' encoding='UTF-8'?>
<gpx xmlns="http://www.topografix.com/GPX/1/1" creator="www.balnam.be" version="1.1" xmlns:xsi="http://www.w3.org/2001/XMLSchema-instance" xsi:schemaLocation="http://www.topografix.com/GPX/1/1 http://www.topografix.com/GPX/1/1/gpx.xsd">
<trk>
<name>lstsp98</name>
<cmt>v</cmt>
<desc>Sprimont Chemin n°98 La Haze / Moulin à Vent</desc>
<link href="https://chemins.be/sprimont/chemin/98"/><trkseg>
<trkpt lat="50.520176" lon="5.601259"><time>2026-05-02T19:28:25Z</time></trkpt>
<trkpt lat="50.520605" lon="5.601380"><time>2026-05-02T19:38:25Z</time></trkpt>
<trkpt lat="50.520881" lon="5.601981"><time>2026-05-02T19:48:25Z</time></trkpt>
</trkseg></trk>
<trk>
<name>lstsp98</name>
<cmt>r</cmt>
<desc>Sprimont Chemin n°98 La Haze / Moulin à Vent</desc>
<link href="https://chemins.be/sprimont/chemin/98"/><trkseg>
<trkpt lat="50.520881" lon="5.601981"><time>2026-05-02T19:48:25Z</time></trkpt>
<trkpt lat="50.521208" lon="5.602612"><time>2026-05-02T19:58:25Z</time></trkpt>
<trkpt lat="50.521964" lon="5.605050"><time>2026-05-02T20:08:25Z</time></trkpt>
</trkseg></trk>
<trk>
<name>lstsp98</name>
<cmt>v</cmt>
<desc>Sprimont Chemin n°98 La Haze / Moulin à Vent</desc>
<link href="https://chemins.be/sprimont/chemin/98"/><trkseg>
<trkpt lat="50.521964" lon="5.605050"><time>2026-05-02T20:08:25Z</time></trkpt>
<trkpt lat="50.522958" lon="5.607794"><time>2026-05-02T20:18:25Z</time></trkpt>
</trkseg></trk>
<trk>
<name>lstsp98</name>
<cmt>d</cmt>
<desc>Sprimont Chemin n°98 La Haze / Moulin à Vent</desc>
<link href="https://chemins.be/sprimont/chemin/98"/><trkseg>
<trkpt lat="50.522958" lon="5.607794"><time>2026-05-02T20:18:25Z</time></trkpt>
<trkpt lat="50.524729" lon="5.606560"><time>2026-05-02T20:28:25Z</time></trkpt>
</trkseg></trk>
<trk>
<name>lstsp98</name>
<cmt>r</cmt>
<desc>Sprimont Chemin n°98 La Haze / Moulin à Vent</desc>
<link href="https://chemins.be/sprimont/chemin/98"/><trkseg>
<trkpt lat="50.524729" lon="5.606560"><time>2026-05-02T20:28:25Z</time></trkpt>
<trkpt lat="50.525265" lon="5.606053"><time>2026-05-02T20:38:25Z</time></trkpt>
<trkpt lat="50.525746" lon="5.605614"><time>2026-05-02T20:48:25Z</time></trkpt>
<trkpt lat="50.525960" lon="5.605166"><time>2026-05-02T20:58:25Z</time></trkpt>
<trkpt lat="50.526122" lon="5.604600"><time>2026-05-02T21:08:25Z</time></trkpt>
</trkseg></trk>
<trk>
<name>lstsp98</name>
<cmt>v</cmt>
<desc>Sprimont Chemin n°98 La Haze / Moulin à Vent</desc>
<link href="https://chemins.be/sprimont/chemin/98"/><trkseg>
<trkpt lat="50.526122" lon="5.604600"><time>2026-05-02T21:08:25Z</time></trkpt>
<trkpt lat="50.526277" lon="5.603893"><time>2026-05-02T21:18:25Z</time></trkpt>
<trkpt lat="50.526260" lon="5.602947"><time>2026-05-02T21:28:25Z</time></trkpt>
<trkpt lat="50.527007" lon="5.601679"><time>2026-05-02T21:38:25Z</time></trkpt>
<trkpt lat="50.528198" lon="5.600620"><time>2026-05-02T21:48:25Z</time></trkpt>
<trkpt lat="50.529559" lon="5.599475"><time>2026-05-02T21:58:25Z</time></trkpt>
<trkpt lat="50.529912" lon="5.599042"><time>2026-05-02T22:08:25Z</time></trkpt>
<trkpt lat="50.530281" lon="5.598718"><time>2026-05-02T22:18:25Z</time></trkpt>
<trkpt lat="50.531626" lon="5.598381"><time>2026-05-02T22:28:25Z</time></trkpt>
<trkpt lat="50.533491" lon="5.597287"><time>2026-05-02T22:38:25Z</time></trkpt>
</trkseg>
</trk>
</gpx>